Time;durP1;ratioP1;P1;durP2;ratioP2;P2;SDS_P1;SDS_P2;PMS_P1;PMS_P2;Temp;Humidity;BMP_temperature;BMP_pressure;BME280_temperature;BME280_humidity;BME280_pressure;Samples;Min_cycle;Max_cycle;Signal;HPM_P1;HPM_P2
2021/11/06 00:02:22;;;;;;;18.63;13.07;;;;;;;5.37;100.00;100649.38;5070859;28;20287;-77
2021/11/06 00:04:49;;;;;;;18.27;12.93;;;;;;;5.46;100.00;100651.00;5070842;28;20610;-77
2021/11/06 00:07:16;;;;;;;18.35;13.60;;;;;;;5.54;100.00;100644.59;5071559;28;20497;-77
2021/11/06 00:09:42;;;;;;;16.55;13.77;;;;;;;5.53;100.00;100650.81;5070744;28;20194;-77
2021/11/06 00:12:10;;;;;;;18.73;14.63;;;;;;;5.73;100.00;100649.53;5070580;28;20280;-77
2021/11/06 00:14:37;;;;;;;23.25;15.10;;;;;;;5.53;100.00;100649.94;5072409;28;20317;-76
2021/11/06 00:17:04;;;;;;;25.02;14.15;;;;;;;5.53;100.00;100656.16;5075341;28;20184;-77
2021/11/06 00:19:32;;;;;;;17.90;14.38;;;;;;;5.50;100.00;100658.91;5075273;28;20546;-77
2021/11/06 00:21:58;;;;;;;21.63;14.48;;;;;;;5.79;100.00;100649.41;5075108;28;20193;-78
2021/11/06 00:24:25;;;;;;;21.05;15.13;;;;;;;5.98;100.00;100644.56;5075285;28;20192;-77
2021/11/06 00:26:51;;;;;;;19.67;14.18;;;;;;;6.13;100.00;100645.97;5073726;28;20204;-77
2021/11/06 00:29:19;;;;;;;20.55;14.68;;;;;;;5.90;100.00;100644.72;5074737;28;20203;-78
2021/11/06 00:31:46;;;;;;;18.67;14.07;;;;;;;6.17;100.00;100636.97;5074610;28;20192;-78
2021/11/06 00:34:12;;;;;;;22.80;14.63;;;;;;;6.25;100.00;100645.72;5062210;28;20208;-77
2021/11/06 00:36:40;;;;;;;22.10;15.57;;;;;;;6.25;100.00;100648.38;5055004;28;20201;-77
2021/11/06 00:39:07;;;;;;;18.08;13.90;;;;;;;6.20;100.00;100647.63;5057925;28;20230;-77
2021/11/06 00:41:34;;;;;;;18.52;14.13;;;;;;;6.04;100.00;100647.97;5073879;28;20192;-77
2021/11/06 00:44:01;;;;;;;18.77;13.43;;;;;;;6.11;100.00;100637.16;5072235;28;20566;-78
2021/11/06 00:46:27;;;;;;;17.38;13.05;;;;;;;6.26;100.00;100642.09;5070418;28;20558;-78
2021/11/06 00:48:54;;;;;;;16.25;14.07;;;;;;;6.08;100.00;100650.56;5072063;28;20194;-76
2021/11/06 00:51:21;;;;;;;21.00;15.75;;;;;;;5.80;100.00;100646.69;5067509;28;20194;-77
2021/11/06 00:53:49;;;;;;;17.08;12.90;;;;;;;5.89;100.00;100647.41;5062036;28;20190;-77
2021/11/06 00:56:15;;;;;;;16.48;13.63;;;;;;;5.83;100.00;100646.63;5066235;28;20200;-77
2021/11/06 00:58:42;;;;;;;19.35;14.05;;;;;;;5.78;100.00;100647.63;5074177;28;20196;-77
2021/11/06 01:01:09;;;;;;;16.17;13.23;;;;;;;5.69;100.00;100650.50;5073943;28;20196;-77
2021/11/06 01:03:36;;;;;;;18.70;13.82;;;;;;;5.68;100.00;100649.63;5071327;28;20581;-77
2021/11/06 01:06:03;;;;;;;19.45;14.50;;;;;;;5.87;100.00;100652.78;5066445;28;20221;-78
2021/11/06 01:08:29;;;;;;;20.95;14.18;;;;;;;5.79;100.00;100652.94;5072650;28;20197;-77
2021/11/06 01:10:57;;;;;;;20.00;13.43;;;;;;;5.95;100.00;100648.19;5062924;28;20203;-77
2021/11/06 01:13:24;;;;;;;19.13;13.25;;;;;;;6.24;100.00;100652.88;5073860;28;20192;-76
2021/11/06 01:15:50;;;;;;;22.40;14.40;;;;;;;6.42;100.00;100656.91;5072683;28;20216;-76
2021/11/06 01:18:17;;;;;;;14.90;12.35;;;;;;;6.30;100.00;100654.50;5074096;28;20535;-77
2021/11/06 01:20:44;;;;;;;17.35;14.27;;;;;;;6.24;100.00;100652.88;5073834;28;20185;-77
2021/11/06 01:23:10;;;;;;;17.52;13.95;;;;;;;6.25;100.00;100659.09;5073180;28;20207;-77
2021/11/06 01:25:37;;;;;;;18.75;11.98;;;;;;;6.21;100.00;100657.38;5061717;28;20327;-77
2021/11/06 01:28:05;;;;;;;15.07;10.75;;;;;;;6.46;100.00;100646.97;5073801;28;20185;-77
2021/11/06 01:30:32;;;;;;;18.10;11.88;;;;;;;6.66;100.00;100635.78;5066564;28;20276;-78
2021/11/06 01:33:01;;;;;;;14.82;11.00;;;;;;;6.78;100.00;100631.91;5074260;28;20651;-77
2021/11/06 01:35:28;;;;;;;20.00;11.13;;;;;;;6.75;100.00;100634.69;5064324;28;20194;-78
2021/11/06 01:37:58;;;;;;;16.50;11.85;;;;;;;6.75;100.00;100640.03;5074294;28;20531;-76
2021/11/06 01:40:25;;;;;;;14.85;11.35;;;;;;;6.86;100.00;100635.28;5069240;28;20201;-77
2021/11/06 01:42:51;;;;;;;15.63;10.60;;;;;;;6.91;100.00;100632.47;5073734;28;20189;-77
2021/11/06 01:45:22;;;;;;;20.27;11.25;;;;;;;6.80;100.00;100644.31;5073502;28;20213;-77
2021/11/06 01:47:49;;;;;;;14.40;11.63;;;;;;;6.95;100.00;100632.34;5073579;28;20184;-76
2021/11/06 01:50:17;;;;;;;16.90;11.20;;;;;;;7.03;99.62;100634.81;5071978;28;20601;-76
2021/11/06 01:52:44;;;;;;;13.38;11.50;;;;;;;7.10;99.21;100625.72;5073348;28;20191;-77
2021/11/06 01:55:11;;;;;;;13.82;11.15;;;;;;;7.07;98.87;100620.41;5072694;28;20197;-78
2021/11/06 01:57:38;;;;;;;17.58;11.23;;;;;;;7.21;98.46;100623.63;5073468;28;20194;-77
2021/11/06 02:00:07;;;;;;;15.07;10.75;;;;;;;7.27;97.66;100627.91;5073535;28;20186;-78
2021/11/06 02:02:36;;;;;;;15.23;10.75;;;;;;;7.32;96.47;100618.81;5072437;28;20189;-78
2021/11/06 02:05:04;;;;;;;17.58;13.57;;;;;;;7.31;97.23;100614.38;5067116;28;20197;-77
2021/11/06 02:07:30;;;;;;;16.35;11.48;;;;;;;7.30;97.13;100611.72;5073346;28;20219;-77
2021/11/06 02:09:57;;;;;;;16.33;11.65;;;;;;;7.12;98.38;100609.56;5072944;28;20297;-78
2021/11/06 02:12:24;;;;;;;15.27;11.25;;;;;;;6.97;99.58;100619.81;5073618;28;20190;-77
2021/11/06 02:14:50;;;;;;;15.25;11.93;;;;;;;7.36;97.20;100616.06;5072779;28;20784;-78
2021/11/06 02:17:17;;;;;;;15.18;11.60;;;;;;;7.22;96.81;100620.00;5072798;28;20272;-77
2021/11/06 02:19:45;;;;;;;13.20;11.10;;;;;;;7.19;97.13;100614.75;5066455;28;20190;-77
2021/11/06 02:22:13;;;;;;;15.90;11.82;;;;;;;7.25;96.58;100627.94;5073400;28;20224;-78
2021/11/06 02:24:40;;;;;;;13.32;10.90;;;;;;;7.32;95.85;100616.13;5071610;28;20185;-77
2021/11/06 02:27:07;;;;;;;13.45;10.88;;;;;;;7.51;93.70;100616.50;5071619;28;20208;-76
2021/11/06 02:29:34;;;;;;;14.55;11.25;;;;;;;7.43;94.14;100617.63;5071842;28;20284;-76
2021/11/06 02:32:01;;;;;;;13.95;11.13;;;;;;;7.31;95.31;100618.88;5072968;28;20653;-77
2021/11/06 02:34:27;;;;;;;14.15;10.45;;;;;;;7.36;95.13;100614.25;5071992;28;20223;-77
2021/11/06 02:36:55;;;;;;;12.70;9.88;;;;;;;7.38;95.34;100609.72;5072221;28;20713;-78
2021/11/06 02:39:25;;;;;;;13.80;10.50;;;;;;;7.34;95.06;100612.53;5072676;28;20196;-77
2021/11/06 02:41:59;;;;;;;14.95;11.93;;;;;;;7.36;94.05;100611.56;5072624;28;20207;-77
2021/11/06 02:44:25;;;;;;;15.75;11.48;;;;;;;7.17;95.39;100608.53;5072338;28;20194;-77
2021/11/06 02:46:52;;;;;;;11.68;9.85;;;;;;;7.19;95.79;100612.06;5072444;28;20626;-77
2021/11/06 02:49:19;;;;;;;13.65;10.95;;;;;;;7.14;95.43;100608.59;5071214;28;20284;-77
2021/11/06 02:51:45;;;;;;;12.43;10.15;;;;;;;7.08;94.71;100607.00;5072391;28;20284;-78
2021/11/06 02:54:12;;;;;;;13.13;10.82;;;;;;;6.76;96.57;100615.91;5069875;28;20196;-78
2021/11/06 02:56:40;;;;;;;12.75;10.82;;;;;;;6.80;97.60;100612.19;5066385;28;20311;-76
2021/11/06 02:59:07;;;;;;;12.60;10.32;;;;;;;6.80;97.11;100611.31;5071979;28;20189;-77
2021/11/06 03:01:34;;;;;;;16.45;10.73;;;;;;;6.76;97.62;100615.00;5071594;28;20185;-77
2021/11/06 03:04:02;;;;;;;13.55;10.85;;;;;;;6.62;98.50;100616.22;5071529;28;20197;-77
2021/11/06 03:06:28;;;;;;;17.48;13.07;;;;;;;6.60;99.39;100612.75;5068807;28;20217;-78
2021/11/06 03:08:55;;;;;;;13.63;11.07;;;;;;;6.44;99.59;100609.59;5073293;28;20203;-77
2021/11/06 03:11:22;;;;;;;14.90;10.93;;;;;;;6.41;99.83;100615.00;5072530;28;20276;-78
2021/11/06 03:13:50;;;;;;;17.23;12.30;;;;;;;6.30;100.00;100616.19;5061482;28;20199;-77
2021/11/06 03:16:17;;;;;;;16.15;12.18;;;;;;;6.26;100.00;100620.72;5071891;28;20181;-78
2021/11/06 03:18:43;;;;;;;16.48;11.55;;;;;;;6.50;99.74;100618.38;5072255;28;20195;-77
2021/11/06 03:21:10;;;;;;;16.83;13.07;;;;;;;6.35;99.79;100623.16;5071237;28;20275;-77
2021/11/06 03:23:37;;;;;;;16.05;12.15;;;;;;;6.33;100.00;100617.00;5063113;28;20189;-76
2021/11/06 03:26:04;;;;;;;32.25;13.20;;;;;;;6.16;100.00;100629.88;5071912;28;20276;-77
2021/11/06 03:28:30;;;;;;;18.95;13.25;;;;;;;6.04;100.00;100631.06;5071445;28;20283;-76
2021/11/06 03:30:58;;;;;;;15.45;12.80;;;;;;;6.20;100.00;100634.25;5069992;28;20211;-78
2021/11/06 03:33:25;;;;;;;17.60;13.55;;;;;;;6.02;100.00;100631.06;5071724;28;20623;-77
2021/11/06 03:35:51;;;;;;;18.75;12.93;;;;;;;6.03;100.00;100643.53;5071534;28;20281;-77
2021/11/06 03:38:18;;;;;;;16.95;12.88;;;;;;;6.04;100.00;100653.31;5071445;28;20536;-77
2021/11/06 03:40:45;;;;;;;18.13;13.63;;;;;;;6.00;100.00;100646.28;5071565;28;20550;-77
2021/11/06 03:43:11;;;;;;;20.05;14.80;;;;;;;6.06;100.00;100650.63;5070873;28;20296;-76
2021/11/06 03:45:39;;;;;;;22.75;14.88;;;;;;;5.89;100.00;100648.28;5051726;28;20190;-77
2021/11/06 03:48:07;;;;;;;18.38;13.55;;;;;;;6.00;100.00;100654.28;5050624;28;20206;-77
2021/11/06 03:50:34;;;;;;;19.38;13.27;;;;;;;6.08;100.00;100658.59;5066785;28;20201;-77
2021/11/06 03:53:00;;;;;;;19.27;13.48;;;;;;;6.20;100.00;100661.00;5069248;28;20196;-77
2021/11/06 03:55:27;;;;;;;20.30;15.07;;;;;;;6.44;100.00;100654.16;5056891;28;20639;-78
2021/11/06 03:57:54;;;;;;;20.33;15.48;;;;;;;6.39;100.00;100656.94;5069166;28;20273;-78
2021/11/06 04:00:22;;;;;;;23.55;15.73;;;;;;;6.19;100.00;100668.13;5071395;28;20276;-77
2021/11/06 04:02:50;;;;;;;21.83;14.05;;;;;;;6.30;100.00;100662.53;5062098;28;20202;-77
2021/11/06 04:05:18;;;;;;;23.17;15.50;;;;;;;6.56;100.00;100656.56;5067866;28;20193;-76
2021/11/06 04:07:45;;;;;;;17.90;13.23;;;;;;;6.48;100.00;100664.75;5071288;28;20231;-77
2021/11/06 04:10:12;;;;;;;23.25;14.02;;;;;;;6.57;100.00;100668.13;5066442;28;20193;-77
2021/11/06 04:12:40;;;;;;;29.77;13.43;;;;;;;6.47;100.00;100664.81;5070967;28;20200;-77
2021/11/06 04:15:09;;;;;;;24.63;13.70;;;;;;;6.42;100.00;100672.03;5070513;28;20336;-76
2021/11/06 04:17:37;;;;;;;29.92;14.75;;;;;;;6.51;100.00;100662.91;5071290;28;20190;-77
2021/11/06 04:20:05;;;;;;;23.67;14.07;;;;;;;6.51;100.00;100649.53;5062920;28;20281;-77
2021/11/06 04:22:34;;;;;;;23.30;13.48;;;;;;;6.54;100.00;100652.16;5071549;28;20655;-77
2021/11/06 04:25:01;;;;;;;28.52;16.25;;;;;;;6.25;100.00;100656.41;5060573;28;20200;-77
2021/11/06 04:27:28;;;;;;;22.27;14.80;;;;;;;6.31;100.00;100656.28;5070439;28;20197;-77
2021/11/06 04:29:54;;;;;;;42.13;15.93;;;;;;;6.12;100.00;100654.94;5070323;28;20219;-76
2021/11/06 04:32:22;;;;;;;36.33;17.27;;;;;;;6.14;100.00;100662.00;5070794;28;20199;-78
2021/11/06 04:34:49;;;;;;;35.03;15.25;;;;;;;6.19;100.00;100668.13;5071463;28;20232;-78
2021/11/06 04:37:15;;;;;;;33.42;15.25;;;;;;;6.19;100.00;100670.78;5071126;28;20185;-78
2021/11/06 04:39:43;;;;;;;33.13;15.20;;;;;;;6.05;100.00;100668.44;5071100;28;20637;-77
2021/11/06 04:42:10;;;;;;;27.40;15.23;;;;;;;6.11;100.00;100672.78;5071078;28;20198;-77
2021/11/06 04:44:37;;;;;;;22.40;14.20;;;;;;;6.11;100.00;100669.22;5070181;28;20891;-77
2021/11/06 04:47:04;;;;;;;37.75;17.27;;;;;;;6.08;100.00;100679.97;5066829;28;20220;-77
2021/11/06 04:49:31;;;;;;;25.42;15.77;;;;;;;6.07;100.00;100671.09;5067245;28;20195;-77
2021/11/06 04:51:58;;;;;;;23.88;14.95;;;;;;;6.08;100.00;100674.63;5068087;28;20308;-77
2021/11/06 04:54:24;;;;;;;30.20;14.43;;;;;;;6.00;100.00;100678.34;5061344;28;20193;-78
2021/11/06 04:56:52;;;;;;;30.63;15.23;;;;;;;5.93;100.00;100676.72;5069888;28;20189;-76
2021/11/06 04:59:19;;;;;;;27.05;14.88;;;;;;;6.01;100.00;100676.56;5071355;28;20209;-76
2021/11/06 05:01:45;;;;;;;33.22;15.68;;;;;;;5.93;100.00;100674.03;5062583;28;20193;-77
2021/11/06 05:04:12;;;;;;;24.10;13.85;;;;;;;6.30;100.00;100675.91;5069845;28;20292;-77
2021/11/06 05:06:39;;;;;;;22.40;14.85;;;;;;;6.43;100.00;100682.72;5069671;28;20194;-78
2021/11/06 05:09:05;;;;;;;28.42;15.82;;;;;;;6.59;100.00;100679.69;5074086;28;20529;-77
2021/11/06 05:11:32;;;;;;;25.73;15.40;;;;;;;6.51;100.00;100681.66;5072865;28;20189;-77
2021/11/06 05:14:00;;;;;;;26.25;14.68;;;;;;;6.45;100.00;100678.22;5063483;28;20229;-78
2021/11/06 05:16:27;;;;;;;26.88;15.10;;;;;;;6.47;100.00;100683.53;5074496;28;20192;-77
2021/11/06 05:18:55;;;;;;;39.72;15.38;;;;;;;6.46;100.00;100677.28;5074517;28;20200;-77
2021/11/06 05:21:22;;;;;;;31.48;15.30;;;;;;;6.38;100.00;100683.75;5074350;28;20312;-76
2021/11/06 05:23:49;;;;;;;40.25;14.80;;;;;;;6.34;100.00;100690.97;5074281;28;20849;-77
2021/11/06 05:26:16;;;;;;;26.48;14.35;;;;;;;6.28;100.00;100679.53;5073951;28;20189;-77
2021/11/06 05:28:43;;;;;;;34.05;14.50;;;;;;;6.22;100.00;100683.25;5073742;28;20336;-78
2021/11/06 05:31:11;;;;;;;28.67;16.33;;;;;;;6.24;100.00;100681.38;5074296;28;20280;-77
2021/11/06 05:33:38;;;;;;;33.55;15.75;;;;;;;6.26;100.00;100692.94;5073707;28;20205;-77
2021/11/06 05:36:05;;;;;;;23.98;14.15;;;;;;;6.29;100.00;100692.88;5073885;28;20209;-77
2021/11/06 05:38:32;;;;;;;23.77;15.35;;;;;;;6.37;100.00;100698.03;5073844;28;20198;-77
2021/11/06 05:40:58;;;;;;;29.33;15.23;;;;;;;6.41;100.00;100699.72;5074276;28;20185;-77
2021/11/06 05:43:25;;;;;;;22.88;15.27;;;;;;;6.55;100.00;100702.94;5074208;28;20207;-78
2021/11/06 05:45:52;;;;;;;28.38;14.98;;;;;;;6.52;100.00;100705.72;5062613;28;20190;-77
2021/11/06 05:48:20;;;;;;;25.63;15.00;;;;;;;6.55;100.00;100704.75;5072080;28;20276;-78
2021/11/06 05:50:46;;;;;;;22.75;15.13;;;;;;;6.68;100.00;100709.75;5065557;28;20205;-78
2021/11/06 05:53:13;;;;;;;28.95;14.93;;;;;;;6.34;100.00;100707.03;5073800;28;20239;-77
2021/11/06 05:55:40;;;;;;;30.90;16.55;;;;;;;6.46;100.00;100708.53;5073600;28;20198;-77
2021/11/06 05:58:08;;;;;;;30.02;16.52;;;;;;;6.47;100.00;100702.28;5073289;28;20243;-77
2021/11/06 06:00:35;;;;;;;21.25;13.82;;;;;;;6.59;100.00;100703.75;5073645;28;20256;-77
2021/11/06 06:03:02;;;;;;;22.08;13.63;;;;;;;6.48;100.00;100702.22;5072851;28;20207;-76
2021/11/06 06:05:30;;;;;;;24.67;13.48;;;;;;;6.51;100.00;100705.72;5073276;28;20608;-78
2021/11/06 06:07:57;;;;;;;22.98;13.82;;;;;;;6.52;100.00;100700.34;5072496;28;20229;-78
2021/11/06 06:10:23;;;;;;;27.52;14.27;;;;;;;6.50;100.00;100701.31;5072833;28;20272;-75
2021/11/06 06:12:52;;;;;;;28.33;14.35;;;;;;;6.54;100.00;100703.88;5072227;28;20573;-76
2021/11/06 06:15:20;;;;;;;24.83;15.38;;;;;;;6.59;100.00;100710.00;5072990;28;20229;-77
2021/11/06 06:17:47;;;;;;;24.50;14.02;;;;;;;6.60;100.00;100718.88;5073122;28;20211;-77
2021/11/06 06:20:14;;;;;;;30.02;15.00;;;;;;;6.53;100.00;100715.47;5072712;28;20240;-78
2021/11/06 06:22:43;;;;;;;32.30;17.02;;;;;;;6.61;100.00;100721.53;5073148;28;20219;-77
2021/11/06 06:25:11;;;;;;;34.13;15.55;;;;;;;6.56;100.00;100719.91;5072847;28;20281;-78
2021/11/06 06:27:39;;;;;;;32.40;16.80;;;;;;;6.59;100.00;100726.03;5071726;28;20235;-78
2021/11/06 06:30:08;;;;;;;30.75;15.50;;;;;;;6.66;100.00;100730.34;5072806;28;20597;-77
2021/11/06 06:32:34;;;;;;;36.13;18.05;;;;;;;6.71;100.00;100726.66;5072733;28;20189;-76
2021/11/06 06:35:01;;;;;;;30.05;16.20;;;;;;;6.60;100.00;100733.19;5072581;28;20201;-78
2021/11/06 06:37:28;;;;;;;34.83;18.10;;;;;;;6.78;100.00;100731.81;5072760;28;20181;-78
2021/11/06 06:39:56;;;;;;;32.53;17.02;;;;;;;6.73;100.00;100735.56;5071971;28;20275;-79
2021/11/06 06:42:23;;;;;;;35.25;16.42;;;;;;;6.73;100.00;100733.75;5072551;28;20208;-77
2021/11/06 06:44:50;;;;;;;28.17;15.35;;;;;;;6.72;100.00;100739.16;5072833;28;20203;-77
2021/11/06 06:47:16;;;;;;;34.53;16.10;;;;;;;6.64;100.00;100742.00;5072520;28;20228;-77
2021/11/06 06:49:45;;;;;;;39.75;16.77;;;;;;;6.46;100.00;100733.47;5072684;28;20190;-77
2021/11/06 06:52:11;;;;;;;35.60;16.73;;;;;;;6.51;100.00;100737.84;5071901;28;20296;-77
2021/11/06 06:54:38;;;;;;;39.38;17.08;;;;;;;6.46;100.00;100738.81;5071678;28;20181;-78
2021/11/06 06:57:06;;;;;;;36.78;17.77;;;;;;;6.50;100.00;100738.78;5062162;28;20200;-78
2021/11/06 06:59:34;;;;;;;30.00;16.27;;;;;;;6.38;100.00;100732.78;5071551;28;20517;-76
2021/11/06 07:02:00;;;;;;;41.00;17.65;;;;;;;6.25;100.00;100736.66;5071767;28;20221;-77
2021/11/06 07:04:27;;;;;;;38.83;16.92;;;;;;;6.33;100.00;100740.06;5071956;28;20185;-76
2021/11/06 07:06:54;;;;;;;34.10;17.95;;;;;;;6.11;100.00;100739.63;5071869;28;20185;-77
2021/11/06 07:09:21;;;;;;;36.47;17.75;;;;;;;6.23;100.00;100739.34;5071505;28;20229;-76
2021/11/06 07:11:48;;;;;;;42.35;16.25;;;;;;;6.05;100.00;100745.97;5071577;28;20623;-77
2021/11/06 07:14:17;;;;;;;44.83;17.58;;;;;;;6.17;100.00;100741.28;5071053;28;20255;-76
2021/11/06 07:16:44;;;;;;;35.67;15.82;;;;;;;6.14;100.00;100738.69;5071673;28;20186;-76
2021/11/06 07:19:11;;;;;;;27.58;15.20;;;;;;;6.24;100.00;100748.25;5071589;28;20506;-75
2021/11/06 07:21:38;;;;;;;36.88;17.05;;;;;;;6.02;100.00;100748.72;5071764;28;20695;-77
2021/11/06 07:24:05;;;;;;;41.10;18.27;;;;;;;6.12;100.00;100754.75;5071594;28;20200;-77
2021/11/06 07:26:32;;;;;;;41.10;16.65;;;;;;;6.12;100.00;100756.56;5070941;28;20191;-76
2021/11/06 07:28:59;;;;;;;30.55;16.40;;;;;;;6.49;100.00;100759.31;5071441;28;20758;-77
2021/11/06 07:31:28;;;;;;;31.98;15.90;;;;;;;6.66;100.00;100762.44;5070973;28;20193;-76
2021/11/06 07:33:55;;;;;;;27.45;16.70;;;;;;;6.65;100.00;100762.50;5070280;28;20189;-76
2021/11/06 07:36:21;;;;;;;29.67;18.10;;;;;;;6.72;100.00;100758.75;5071314;28;20204;-78
2021/11/06 07:38:49;;;;;;;35.50;16.48;;;;;;;6.74;100.00;100774.78;5071134;28;20190;-77
2021/11/06 07:41:17;;;;;;;42.53;16.88;;;;;;;6.40;100.00;100778.22;5071148;28;20243;-77
2021/11/06 07:43:44;;;;;;;35.83;18.23;;;;;;;6.42;100.00;100771.94;5070677;28;20227;-78
2021/11/06 07:46:10;;;;;;;36.47;18.55;;;;;;;6.27;100.00;100774.94;5070949;28;20197;-77
2021/11/06 07:48:38;;;;;;;29.23;15.57;;;;;;;6.43;100.00;100778.16;5070818;28;20213;-77
2021/11/06 07:51:05;;;;;;;30.88;18.13;;;;;;;6.59;100.00;100776.03;5071386;28;20287;-77
2021/11/06 07:53:32;;;;;;;41.65;20.55;;;;;;;6.42;100.00;100776.38;5070845;28;20584;-75
2021/11/06 07:55:59;;;;;;;38.38;16.65;;;;;;;6.67;100.00;100777.63;5068346;28;20634;-74
2021/11/06 07:58:25;;;;;;;36.20;15.68;;;;;;;6.80;100.00;100772.81;5051254;28;20635;-76
2021/11/06 08:00:52;;;;;;;29.73;16.10;;;;;;;6.98;99.91;100768.81;5057611;28;20580;-76
2021/11/06 08:03:18;;;;;;;28.75;17.17;;;;;;;6.91;100.00;100785.09;5070636;28;20203;-77
2021/11/06 08:05:46;;;;;;;35.50;17.83;;;;;;;7.02;99.69;100783.91;5070888;28;20281;-76
2021/11/06 08:08:13;;;;;;;25.20;16.00;;;;;;;7.19;97.40;100790.63;5070628;28;20241;-77
2021/11/06 08:10:40;;;;;;;27.52;16.30;;;;;;;7.24;96.61;100789.63;5070584;28;20204;-77
2021/11/06 08:13:07;;;;;;;32.20;17.98;;;;;;;7.21;97.40;100788.81;5071037;28;20185;-75
2021/11/06 08:15:33;;;;;;;30.73;17.33;;;;;;;7.23;95.72;100787.84;5070479;28;20270;-77
2021/11/06 08:18:00;;;;;;;32.30;20.77;;;;;;;7.33;95.29;100788.50;5070322;28;20219;-77
2021/11/06 08:20:27;;;;;;;41.10;17.95;;;;;;;7.36;95.71;100791.09;5070724;28;20190;-78
2021/11/06 08:22:56;;;;;;;35.97;17.02;;;;;;;7.40;95.21;100791.91;5070586;28;20211;-77
2021/11/06 08:25:24;;;;;;;27.55;16.83;;;;;;;7.50;93.58;100785.38;5076172;28;20217;-77
2021/11/06 08:27:53;;;;;;;31.02;15.13;;;;;;;7.53;92.88;100793.34;5070389;28;20671;-77
2021/11/06 08:30:21;;;;;;;39.35;17.20;;;;;;;7.48;93.63;100785.44;5070524;28;20272;-76
2021/11/06 08:32:50;;;;;;;33.13;16.90;;;;;;;7.31;95.14;100791.22;5071174;28;20212;-77
2021/11/06 08:35:17;;;;;;;32.95;16.35;;;;;;;7.29;95.86;100792.19;5072127;28;20324;-76
2021/11/06 08:37:44;;;;;;;27.80;15.65;;;;;;;7.60;93.76;100781.53;5074513;28;20201;-77
2021/11/06 08:40:13;;;;;;;26.38;15.80;;;;;;;7.70;92.53;100788.38;5075095;28;20281;-77
2021/11/06 08:42:40;;;;;;;20.55;13.52;;;;;;;7.77;92.62;100794.47;5074867;28;20206;-78
2021/11/06 08:45:09;;;;;;;31.38;17.70;;;;;;;7.80;91.77;100799.75;5074155;28;20192;-78
2021/11/06 08:47:37;;;;;;;27.50;16.10;;;;;;;7.51;92.68;100795.19;5074223;28;20547;-76
2021/11/06 08:50:05;;;;;;;25.67;15.30;;;;;;;7.15;95.23;100797.88;5074259;28;20190;-76
2021/11/06 08:52:31;;;;;;;27.55;15.18;;;;;;;7.37;94.65;100810.72;5073669;28;20211;-77
2021/11/06 08:54:58;;;;;;;29.08;16.90;;;;;;;7.42;93.99;100798.13;5074446;28;20192;-77
2021/11/06 08:57:26;;;;;;;37.15;16.48;;;;;;;7.60;92.26;100799.41;5074363;28;20314;-78
2021/11/06 08:59:59;;;;;;;28.88;17.45;;;;;;;7.81;92.53;100796.16;5074630;28;20178;-77
2021/11/06 09:02:26;;;;;;;29.17;15.55;;;;;;;7.87;90.85;100793.31;5074088;28;20641;-77
2021/11/06 09:04:54;;;;;;;21.55;15.15;;;;;;;8.05;90.06;100791.00;5062394;28;20652;-77
2021/11/06 09:07:21;;;;;;;30.73;17.00;;;;;;;8.17;88.74;100787.97;5072594;28;20200;-77
2021/11/06 09:09:48;;;;;;;27.85;15.43;;;;;;;8.10;88.18;100792.66;5057153;28;20221;-77
2021/11/06 09:12:14;;;;;;;24.95;15.05;;;;;;;8.07;88.43;100794.53;5059621;28;20194;-77
2021/11/06 09:14:43;;;;;;;24.08;15.70;;;;;;;7.95;89.68;100793.06;5073511;28;20237;-78
2021/11/06 09:17:09;;;;;;;27.98;16.25;;;;;;;7.51;90.28;100793.38;5074153;28;20213;-77
2021/11/06 09:19:36;;;;;;;30.20;15.40;;;;;;;7.70;91.20;100799.13;5064802;28;20190;-76
2021/11/06 09:22:03;;;;;;;26.15;17.08;;;;;;;7.63;92.26;100786.81;5055070;28;20544;-76
2021/11/06 09:24:30;;;;;;;25.70;17.25;;;;;;;7.81;91.86;100792.59;5073047;28;20282;-76
2021/11/06 09:26:56;;;;;;;30.15;17.42;;;;;;;7.80;91.11;100793.50;5073276;28;20287;-77
2021/11/06 09:29:23;;;;;;;27.45;18.35;;;;;;;7.96;90.94;100793.94;5074036;28;20672;-77
2021/11/06 09:31:51;;;;;;;29.88;18.15;;;;;;;8.19;89.85;100790.63;5077693;28;20212;-79
2021/11/06 09:34:18;;;;;;;28.85;15.90;;;;;;;8.25;88.95;100796.66;5093746;28;20184;-78
2021/11/06 09:36:44;;;;;;;27.05;17.52;;;;;;;8.25;89.20;100799.34;5091773;28;20186;-77
2021/11/06 09:39:13;;;;;;;23.27;15.52;;;;;;;8.25;89.01;100802.03;5073596;28;20603;-77
2021/11/06 09:41:40;;;;;;;27.63;16.95;;;;;;;8.48;87.23;100798.72;5058580;28;20687;-78
2021/11/06 09:44:07;;;;;;;30.02;16.70;;;;;;;8.49;87.73;100800.47;5072020;28;20195;-79
2021/11/06 09:46:34;;;;;;;25.10;15.00;;;;;;;8.44;88.12;100802.41;5073071;28;20278;-78
2021/11/06 09:49:03;;;;;;;24.17;15.48;;;;;;;8.58;86.98;100804.69;5072963;28;20204;-78
2021/11/06 09:51:30;;;;;;;32.10;16.73;;;;;;;8.41;86.66;100801.63;5073415;28;20187;-78
2021/11/06 09:53:57;;;;;;;29.58;17.23;;;;;;;8.51;86.98;100797.75;5073714;28;20512;-77
2021/11/06 09:56:27;;;;;;;52.97;28.77;;;;;;;8.25;87.88;100793.09;5073424;28;20209;-77
2021/11/06 09:58:56;;;;;;;32.25;18.42;;;;;;;8.44;87.70;100798.84;5072967;28;20206;-77
2021/11/06 10:01:24;;;;;;;37.42;17.95;;;;;;;8.46;88.06;100802.38;5072990;28;20203;-78
2021/11/06 10:03:50;;;;;;;22.20;15.63;;;;;;;8.38;87.79;100794.50;5073356;28;20192;-77
2021/11/06 10:06:20;;;;;;;27.88;18.25;;;;;;;8.30;88.72;100794.75;5073204;28;20202;-78
2021/11/06 10:08:48;;;;;;;22.85;15.65;;;;;;;8.36;87.80;100786.50;5072673;28;20233;-77
2021/11/06 10:11:18;;;;;;;25.10;15.63;;;;;;;8.58;87.51;100795.75;5072777;28;20191;-79
2021/11/06 10:13:52;;;;;;;25.33;16.02;;;;;;;8.76;86.60;100789.81;5072041;28;20240;-79
2021/11/06 10:16:20;;;;;;;25.67;16.58;;;;;;;8.55;85.87;100791.34;5072491;28;20643;-78
2021/11/06 10:18:47;;;;;;;27.40;17.13;;;;;;;8.35;88.14;100792.81;5072682;28;20648;-77
2021/11/06 10:21:14;;;;;;;24.45;16.70;;;;;;;8.59;88.26;100790.31;5071631;28;20289;-79
2021/11/06 10:23:43;;;;;;;25.58;16.52;;;;;;;9.03;85.85;100789.84;5072229;28;20179;-77
2021/11/06 10:26:16;;;;;;;27.88;16.88;;;;;;;9.15;84.62;100795.69;5072160;28;20207;-77
2021/11/06 10:28:43;;;;;;;31.05;16.40;;;;;;;9.30;83.47;100783.53;5072036;28;20310;-76
2021/11/06 10:31:11;;;;;;;27.40;16.73;;;;;;;9.30;83.13;100793.44;5072924;28;20673;-78
2021/11/06 10:33:46;;;;;;;27.15;16.20;;;;;;;9.15;83.55;100786.75;5071702;28;20293;-78
2021/11/06 10:36:22;;;;;;;26.73;17.15;;;;;;;9.33;83.21;100787.94;5072483;28;20202;-79
2021/11/06 10:39:06;;;;;;;29.42;18.13;;;;;;;9.59;82.62;100778.97;5072684;28;20251;-77
2021/11/06 10:41:35;;;;;;;28.20;17.63;;;;;;;9.72;81.79;100769.53;5072309;28;20278;-77
2021/11/06 10:44:02;;;;;;;31.67;18.55;;;;;;;9.99;79.60;100774.81;5071958;28;20533;-78
2021/11/06 10:46:30;;;;;;;27.83;18.98;;;;;;;9.88;80.38;100777.03;5072012;28;20206;-78
2021/11/06 10:48:58;;;;;;;28.23;17.27;;;;;;;9.87;80.62;100772.59;5071906;28;20258;-78
2021/11/06 10:51:25;;;;;;;32.78;20.38;;;;;;;9.96;80.34;100767.75;5071968;28;20199;-78
2021/11/06 10:53:54;;;;;;;36.17;20.75;;;;;;;10.22;79.34;100764.09;5071555;28;20191;-78
2021/11/06 10:56:38;;;;;;;37.83;23.15;;;;;;;10.27;79.13;100761.22;5071733;28;20200;-77
2021/11/06 10:59:10;;;;;;;28.60;18.73;;;;;;;10.34;78.42;100761.91;5071554;28;20685;-77
2021/11/06 11:01:39;;;;;;;32.30;21.42;;;;;;;10.48;78.23;100756.84;5071499;28;20279;-78
2021/11/06 11:04:08;;;;;;;29.90;19.80;;;;;;;10.60;76.65;100755.47;5071347;28;20185;-77
2021/11/06 11:06:37;;;;;;;30.95;20.85;;;;;;;10.68;76.14;100750.66;5071268;28;20207;-77
2021/11/06 11:09:09;;;;;;;35.33;20.92;;;;;;;10.55;76.66;100750.28;5071089;28;20631;-76
2021/11/06 11:11:37;;;;;;;37.30;22.02;;;;;;;10.45;77.56;100754.28;5071089;28;20268;-78
2021/11/06 11:14:06;;;;;;;42.17;24.50;;;;;;;10.55;77.56;100744.88;5070852;28;20223;-78